Time;durP1;ratioP1;P1;durP2;ratioP2;P2;SDS_P1;SDS_P2;PMS_P1;PMS_P2;Temp;Humidity;BMP_temperature;BMP_pressure;BME280_temperature;BME280_humidity;BME280_pressure;Samples;Min_cycle;Max_cycle;Signal;HPM_P1;HPM_P2
2021/09/24 00:00:55;;;;;;;6.50;1.63;;;;;;;14.27;79.34;100662.19;5084709;28;20208;-72
2021/09/24 00:03:22;;;;;;;7.87;1.70;;;;;;;14.24;78.72;100657.94;5086349;28;20227;-73
2021/09/24 00:05:48;;;;;;;7.07;1.87;;;;;;;14.21;78.94;100657.31;5098587;28;20207;-72
2021/09/24 00:08:15;;;;;;;5.37;1.80;;;;;;;14.20;78.92;100658.28;5105250;28;20230;-71
2021/09/24 00:10:42;;;;;;;5.20;1.47;;;;;;;14.17;78.83;100669.22;5094758;28;20200;-71
2021/09/24 00:13:09;;;;;;;4.77;1.73;;;;;;;14.15;78.39;100666.66;5101951;28;20219;-71
2021/09/24 00:15:35;;;;;;;5.37;1.67;;;;;;;14.14;78.68;100658.78;5097046;28;20205;-72
2021/09/24 00:18:04;;;;;;;7.53;1.47;;;;;;;14.12;78.46;100663.41;5094330;28;20575;-72
2021/09/24 00:20:31;;;;;;;6.60;2.17;;;;;;;14.10;78.52;100659.97;5090235;28;20200;-71
2021/09/24 00:22:57;;;;;;;4.47;1.60;;;;;;;14.08;78.68;100664.59;5096361;28;20222;-72
2021/09/24 00:25:24;;;;;;;5.57;1.87;;;;;;;14.06;78.73;100670.06;5092617;28;20208;-71
2021/09/24 00:27:50;;;;;;;8.00;2.37;;;;;;;14.02;78.45;100659.72;5092613;28;20569;-71
2021/09/24 00:30:17;;;;;;;6.87;1.60;;;;;;;14.01;78.76;100663.34;5093129;28;20207;-71
2021/09/24 00:32:43;;;;;;;5.57;1.70;;;;;;;13.97;78.84;100664.59;5105971;28;20242;-72
2021/09/24 00:35:12;;;;;;;8.30;1.93;;;;;;;13.94;79.08;100670.19;5105715;28;20218;-72
2021/09/24 00:37:39;;;;;;;7.60;1.70;;;;;;;13.90;78.67;100669.56;5092225;28;20207;-72
2021/09/24 00:40:07;;;;;;;6.53;1.57;;;;;;;13.85;79.05;100667.22;5092720;28;20208;-71
2021/09/24 00:42:34;;;;;;;6.80;1.80;;;;;;;13.82;78.82;100678.16;5092408;28;20216;-71
2021/09/24 00:45:00;;;;;;;10.27;2.17;;;;;;;13.78;78.75;100676.72;5092212;28;20291;-72
2021/09/24 00:47:27;;;;;;;7.57;2.27;;;;;;;13.77;79.05;100677.69;5090161;28;20216;-71
2021/09/24 00:49:54;;;;;;;7.77;1.63;;;;;;;13.73;79.32;100675.34;5097704;28;20203;-71
2021/09/24 00:52:22;;;;;;;6.47;1.73;;;;;;;13.71;78.89;100674.59;5103010;28;20211;-71
2021/09/24 00:54:50;;;;;;;7.50;2.00;;;;;;;13.69;79.40;100688.09;5092402;28;20211;-72
2021/09/24 00:57:17;;;;;;;4.20;1.40;;;;;;;13.68;79.12;100678.38;5096325;28;20200;-71
2021/09/24 00:59:44;;;;;;;9.50;1.40;;;;;;;13.66;79.13;100669.59;5092317;28;20595;-71
2021/09/24 01:02:11;;;;;;;7.43;1.70;;;;;;;13.64;79.16;100676.88;5093137;28;20712;-71
2021/09/24 01:04:37;;;;;;;6.20;2.00;;;;;;;13.64;78.97;100678.69;5108914;28;20203;-72
2021/09/24 01:07:04;;;;;;;11.17;2.47;;;;;;;13.63;79.30;100672.50;5100165;28;20196;-71
2021/09/24 01:09:33;;;;;;;10.37;1.90;;;;;;;13.63;79.45;100677.84;5112494;28;20293;-71
2021/09/24 01:12:00;;;;;;;5.40;1.90;;;;;;;13.61;79.40;100679.81;5109128;28;20211;-72
2021/09/24 01:14:27;;;;;;;8.73;2.33;;;;;;;13.61;79.71;100673.59;5104664;28;20228;-71
2021/09/24 01:16:55;;;;;;;8.43;2.20;;;;;;;13.61;79.64;100674.47;5091806;28;20223;-71
2021/09/24 01:19:21;;;;;;;9.47;2.93;;;;;;;13.61;79.78;100678.97;5091746;28;20568;-71
2021/09/24 01:21:50;;;;;;;12.37;3.10;;;;;;;13.62;79.94;100681.50;5095759;28;20203;-71
2021/09/24 01:24:17;;;;;;;14.00;3.87;;;;;;;13.63;79.77;100682.34;5091164;28;20225;-71
2021/09/24 01:26:47;;;;;;;7.70;3.10;;;;;;;13.62;80.00;100686.84;5097266;28;20202;-72
2021/09/24 01:29:13;;;;;;;10.83;3.40;;;;;;;13.61;80.17;100693.19;5112052;28;20230;-72
2021/09/24 01:31:40;;;;;;;11.20;3.27;;;;;;;13.57;80.30;100672.97;5103414;28;20204;-71
2021/09/24 01:34:07;;;;;;;6.93;3.10;;;;;;;13.58;79.93;100679.19;5092457;28;20224;-71
2021/09/24 01:36:33;;;;;;;6.87;3.03;;;;;;;13.53;80.11;100675.03;5108316;28;20223;-71
2021/09/24 01:39:04;;;;;;;7.73;3.57;;;;;;;13.50;80.59;100675.25;5111906;28;20207;-71
2021/09/24 01:41:30;;;;;;;11.73;3.20;;;;;;;13.49;80.60;100678.03;5087688;28;20211;-71
2021/09/24 01:43:57;;;;;;;12.07;3.53;;;;;;;13.46;80.12;100670.25;5103263;28;20734;-71
2021/09/24 01:46:23;;;;;;;10.70;3.47;;;;;;;13.44;80.71;100666.81;5107859;28;20202;-71
2021/09/24 01:48:50;;;;;;;10.17;3.07;;;;;;;13.41;80.51;100670.59;5110102;28;20227;-71
2021/09/24 01:51:17;;;;;;;7.63;3.23;;;;;;;13.39;80.54;100677.03;5111851;28;20207;-71
2021/09/24 01:53:43;;;;;;;7.43;3.20;;;;;;;13.36;80.46;100674.59;5104287;28;20216;-71
2021/09/24 01:56:11;;;;;;;7.57;3.30;;;;;;;13.33;80.80;100674.81;5092391;28;20212;-71
2021/09/24 01:58:38;;;;;;;9.57;3.33;;;;;;;13.31;80.78;100676.72;5087540;28;20220;-71
2021/09/24 02:01:04;;;;;;;10.60;3.67;;;;;;;13.28;80.74;100687.66;5098987;28;20214;-72
2021/09/24 02:03:31;;;;;;;9.77;3.17;;;;;;;13.24;80.61;100692.41;5111768;28;20332;-71
2021/09/24 02:05:57;;;;;;;8.57;3.07;;;;;;;13.20;80.84;100694.44;5109399;28;20207;-72
2021/09/24 02:08:24;;;;;;;11.03;3.50;;;;;;;13.18;80.95;100693.69;5092083;28;20216;-71
2021/09/24 02:10:50;;;;;;;11.13;3.87;;;;;;;13.17;80.82;100688.47;5091414;28;20208;-71
2021/09/24 02:13:18;;;;;;;6.87;3.63;;;;;;;13.14;80.91;100692.19;5109568;28;20231;-71
2021/09/24 02:15:45;;;;;;;5.37;2.87;;;;;;;13.13;80.92;100687.78;5093047;28;20662;-71
2021/09/24 02:18:11;;;;;;;7.30;3.47;;;;;;;13.11;81.37;100692.41;5092415;28;20199;-71
2021/09/24 02:20:38;;;;;;;10.63;3.07;;;;;;;13.09;81.51;100694.31;5085611;28;20573;-72
2021/09/24 02:23:05;;;;;;;9.13;3.30;;;;;;;13.07;81.16;100698.97;5091615;28;20238;-72
2021/09/24 02:25:31;;;;;;;8.73;2.87;;;;;;;13.05;81.38;100692.88;5100411;28;20196;-72
2021/09/24 02:27:58;;;;;;;8.33;3.00;;;;;;;13.04;81.42;100698.31;5099101;28;20229;-72
2021/09/24 02:30:26;;;;;;;8.70;3.20;;;;;;;13.03;81.76;100689.44;5104266;28;20199;-72
2021/09/24 02:32:52;;;;;;;10.37;2.90;;;;;;;13.03;81.61;100700.13;5094938;28;20604;-72
2021/09/24 02:35:19;;;;;;;9.57;2.80;;;;;;;13.04;81.65;100696.50;5100753;28;20210;-72
2021/09/24 02:37:54;;;;;;;9.40;3.17;;;;;;;13.03;82.13;100700.13;5095301;28;20207;-72
2021/09/24 02:40:21;;;;;;;10.67;2.63;;;;;;;13.03;81.67;100705.50;5113798;28;20207;-72
2021/09/24 02:42:47;;;;;;;7.87;3.23;;;;;;;13.01;81.93;100704.75;5114894;28;20215;-71
2021/09/24 02:45:14;;;;;;;10.03;3.43;;;;;;;13.00;81.76;100694.16;5114703;28;20210;-72
2021/09/24 02:47:42;;;;;;;5.60;2.70;;;;;;;13.00;81.78;100700.34;5115033;28;20206;-72
2021/09/24 02:50:11;;;;;;;13.37;3.23;;;;;;;12.99;81.93;100693.31;5097676;28;20574;-72
2021/09/24 02:52:37;;;;;;;12.17;3.53;;;;;;;12.98;81.79;100696.94;5094983;28;20251;-73
2021/09/24 02:55:05;;;;;;;6.60;2.80;;;;;;;12.99;82.00;100698.66;5095366;28;20208;-71
2021/09/24 02:57:32;;;;;;;9.67;3.70;;;;;;;12.98;82.26;100696.09;5094902;28;20204;-71
2021/09/24 02:59:58;;;;;;;9.50;3.50;;;;;;;12.96;82.07;100698.88;5095739;28;20196;-71
2021/09/24 03:02:25;;;;;;;7.13;3.63;;;;;;;12.95;82.28;100696.31;5103284;28;20243;-71
2021/09/24 03:04:53;;;;;;;7.47;3.50;;;;;;;12.94;82.30;100700.78;5094493;28;20204;-71
2021/09/24 03:07:19;;;;;;;7.33;3.97;;;;;;;12.93;82.29;100691.06;5095992;28;20566;-71
2021/09/24 03:09:46;;;;;;;11.50;4.60;;;;;;;12.92;82.55;100694.69;5113939;28;20229;-71
2021/09/24 03:12:12;;;;;;;11.17;4.97;;;;;;;12.92;82.54;100697.38;5104026;28;20200;-71
2021/09/24 03:14:39;;;;;;;9.17;3.80;;;;;;;12.92;82.51;100691.16;5094246;28;20589;-72
2021/09/24 03:17:06;;;;;;;5.50;3.43;;;;;;;12.91;82.61;100692.97;5094434;28;20204;-71
2021/09/24 03:19:32;;;;;;;13.20;5.00;;;;;;;12.90;82.77;100701.97;5100136;28;20191;-71
2021/09/24 03:22:00;;;;;;;10.07;4.30;;;;;;;12.90;82.87;100703.81;5112954;28;20208;-71
2021/09/24 03:24:27;;;;;;;10.27;4.50;;;;;;;12.90;83.17;100707.31;5114416;28;20211;-71
2021/09/24 03:26:53;;;;;;;11.57;4.80;;;;;;;12.89;83.24;100707.44;5114872;28;20215;-72
2021/09/24 03:29:20;;;;;;;13.50;5.40;;;;;;;12.87;83.24;100710.22;5114346;28;20226;-71
2021/09/24 03:31:46;;;;;;;10.03;4.83;;;;;;;12.85;83.25;100713.00;5112592;28;20203;-71
2021/09/24 03:34:13;;;;;;;12.90;5.37;;;;;;;12.84;83.60;100713.97;5084211;22;20232;-82
2021/09/24 03:36:39;;;;;;;9.77;4.67;;;;;;;12.83;83.25;100712.28;5063175;28;20248;-81
2021/09/24 03:39:11;;;;;;;8.13;5.27;;;;;;;12.83;83.55;100714.09;5060631;28;20297;-82
2021/09/24 03:41:38;;;;;;;12.83;5.27;;;;;;;12.80;83.60;100711.63;5060266;28;20194;-81
2021/09/24 03:44:05;;;;;;;9.47;5.50;;;;;;;12.80;83.90;100714.31;5059226;28;20213;-82
2021/09/24 03:47:02;;;;;;;15.10;6.07;;;;;;;12.78;83.40;100716.22;5061206;28;20218;-81
2021/09/24 03:49:29;;;;;;;6.97;4.90;;;;;;;12.76;83.62;100719.00;5052312;28;20721;-79
2021/09/24 03:51:57;;;;;;;10.47;6.17;;;;;;;12.75;83.77;100722.63;5057572;28;20212;-79
2021/09/24 03:54:25;;;;;;;15.73;5.90;;;;;;;12.76;83.98;100720.81;5057428;28;20206;-79
2021/09/24 03:56:51;;;;;;;9.60;5.43;;;;;;;12.75;84.10;100716.44;5056508;28;20200;-79
2021/09/24 03:59:18;;;;;;;11.00;4.67;;;;;;;12.73;83.81;100716.53;5039532;28;20198;-80
2021/09/24 04:01:44;;;;;;;12.60;5.43;;;;;;;12.72;83.87;100719.34;5041336;28;20206;-79
2021/09/24 04:04:11;;;;;;;10.07;5.37;;;;;;;12.71;83.99;100714.97;5039239;28;20656;-79
2021/09/24 04:06:37;;;;;;;10.70;5.60;;;;;;;12.71;84.22;100720.31;5041040;28;20240;-80
2021/09/24 04:09:04;;;;;;;11.43;5.03;;;;;;;12.70;84.23;100718.59;5037972;28;20255;-79
2021/09/24 04:11:32;;;;;;;8.70;4.93;;;;;;;12.68;84.05;100708.03;5038563;28;20202;-78
2021/09/24 04:13:58;;;;;;;9.53;4.90;;;;;;;12.68;84.24;100713.38;5038271;28;20212;-78
2021/09/24 04:16:25;;;;;;;10.17;4.90;;;;;;;12.67;83.94;100718.81;5063991;22;20232;-71
2021/09/24 04:18:51;;;;;;;11.70;4.97;;;;;;;12.65;84.10;100716.25;5067364;28;20577;-72
2021/09/24 04:21:18;;;;;;;6.20;4.47;;;;;;;12.65;84.00;100715.41;5068248;28;20231;-73
2021/09/24 04:23:45;;;;;;;6.60;4.07;;;;;;;12.64;84.28;100722.56;5059628;28;20225;-72
2021/09/24 04:26:11;;;;;;;7.67;4.20;;;;;;;12.62;84.03;100716.47;5062726;28;20203;-72
2021/09/24 04:28:39;;;;;;;9.37;4.40;;;;;;;12.62;84.01;100712.94;5078074;22;20243;-74
2021/09/24 04:31:05;;;;;;;8.33;4.13;;;;;;;12.62;84.37;100712.94;5032904;28;20592;-73
2021/09/24 04:33:32;;;;;;;6.97;4.03;;;;;;;12.61;83.97;100713.91;5056283;28;20202;-74
2021/09/24 04:35:59;;;;;;;8.07;3.93;;;;;;;12.61;83.88;100714.75;5047059;28;20202;-74
2021/09/24 04:38:25;;;;;;;8.97;4.63;;;;;;;12.60;84.16;100709.50;5043953;28;20214;-75
2021/09/24 04:40:52;;;;;;;9.00;5.10;;;;;;;12.60;84.42;100717.53;5038919;28;20242;-73
2021/09/24 04:43:19;;;;;;;8.60;4.57;;;;;;;12.61;84.44;100714.75;5038344;28;20577;-73
2021/09/24 04:45:46;;;;;;;12.80;5.63;;;;;;;12.62;84.88;100716.47;5040754;28;20202;-75
2021/09/24 04:48:13;;;;;;;8.83;5.10;;;;;;;12.64;84.71;100719.03;5040179;28;20431;-74
2021/09/24 04:50:39;;;;;;;9.23;4.83;;;;;;;12.66;85.25;100722.44;5042833;28;20216;-74
2021/09/24 04:53:06;;;;;;;15.10;5.50;;;;;;;12.66;84.93;100725.13;5037785;28;20213;-74
2021/09/24 04:55:33;;;;;;;6.90;5.10;;;;;;;12.67;85.39;100717.00;5044449;28;20204;-74
2021/09/24 04:57:59;;;;;;;12.27;5.40;;;;;;;12.67;85.54;100718.81;5038873;28;20204;-74
2021/09/24 05:00:26;;;;;;;8.73;5.27;;;;;;;12.68;85.48;100726.72;5035796;28;20655;-74
2021/09/24 05:02:53;;;;;;;10.03;5.73;;;;;;;12.70;85.63;100723.94;5041193;28;20853;-75
2021/09/24 05:05:20;;;;;;;8.80;5.43;;;;;;;12.69;85.61;100724.91;5036657;28;20205;-75
2021/09/24 05:07:48;;;;;;;11.37;5.83;;;;;;;12.69;86.08;100717.75;5042845;28;20578;-74
2021/09/24 05:10:14;;;;;;;10.90;6.30;;;;;;;12.70;86.33;100721.28;5042363;28;20235;-74
2021/09/24 05:12:41;;;;;;;10.53;5.93;;;;;;;12.71;86.14;100726.50;5039125;28;20198;-74
2021/09/24 05:15:09;;;;;;;12.23;6.90;;;;;;;12.74;86.43;100736.97;5041264;28;20216;-74
2021/09/24 05:17:36;;;;;;;11.57;5.33;;;;;;;12.74;86.38;100726.28;5037734;28;20207;-75
2021/09/24 05:20:05;;;;;;;13.97;6.30;;;;;;;12.77;86.58;100733.22;5034845;28;20221;-75
2021/09/24 05:22:31;;;;;;;10.27;5.60;;;;;;;12.77;86.64;100731.41;5043477;28;20216;-74
2021/09/24 05:24:58;;;;;;;13.80;5.80;;;;;;;12.79;86.76;100736.66;5041441;28;20206;-75
2021/09/24 05:27:24;;;;;;;9.60;5.77;;;;;;;12.80;87.02;100733.00;5038809;28;20210;-75
2021/09/24 05:29:51;;;;;;;10.50;5.37;;;;;;;12.81;87.07;100732.91;5039437;28;20607;-75
2021/09/24 05:32:18;;;;;;;12.93;5.57;;;;;;;12.83;86.90;100735.47;5040609;28;20209;-72
2021/09/24 05:34:45;;;;;;;11.30;6.07;;;;;;;12.86;86.95;100727.25;5037399;28;20605;-73
2021/09/24 05:37:13;;;;;;;11.27;6.57;;;;;;;12.89;87.15;100728.84;5041106;28;20201;-72
2021/09/24 05:39:41;;;;;;;8.23;6.03;;;;;;;12.92;87.17;100732.13;5033950;28;20222;-73
2021/09/24 05:42:08;;;;;;;15.83;7.20;;;;;;;12.94;87.45;100729.34;5038012;28;20214;-72
2021/09/24 05:44:35;;;;;;;12.90;6.43;;;;;;;12.97;87.43;100729.97;5035547;28;20233;-72
2021/09/24 05:47:01;;;;;;;11.33;6.97;;;;;;;13.01;88.02;100727.94;5036906;28;20666;-73
2021/09/24 05:49:29;;;;;;;10.97;6.63;;;;;;;13.06;87.94;100724.00;5041065;28;20233;-73
2021/09/24 05:51:56;;;;;;;13.40;6.77;;;;;;;13.10;88.19;100721.91;5032593;28;20260;-73
2021/09/24 05:54:25;;;;;;;11.63;6.60;;;;;;;13.15;88.24;100726.00;5041223;28;20197;-73
2021/09/24 05:56:51;;;;;;;11.93;6.30;;;;;;;13.19;87.93;100727.50;5050488;28;20213;-73
2021/09/24 05:59:18;;;;;;;10.73;6.23;;;;;;;13.23;88.24;100716.59;5041547;28;20229;-73
2021/09/24 06:01:45;;;;;;;12.70;6.50;;;;;;;13.29;88.23;100721.47;5030635;28;20217;-73
2021/09/24 06:04:12;;;;;;;14.03;6.57;;;;;;;13.32;88.43;100724.78;5030852;28;20234;-73
2021/09/24 06:06:38;;;;;;;11.13;6.17;;;;;;;13.36;88.31;100714.72;5029970;28;20213;-73
2021/09/24 06:09:04;;;;;;;8.73;5.43;;;;;;;13.40;88.52;100719.72;5030281;28;20253;-72
2021/09/24 06:11:32;;;;;;;12.77;5.47;;;;;;;13.44;88.22;100725.69;5029850;28;20221;-73
2021/09/24 06:13:59;;;;;;;13.23;4.87;;;;;;;13.47;88.19;100737.00;5030763;28;20229;-73
2021/09/24 06:16:25;;;;;;;8.80;4.23;;;;;;;13.50;88.19;100731.44;5030270;28;20213;-73
2021/09/24 06:18:52;;;;;;;12.43;4.50;;;;;;;13.53;88.38;100730.38;5030331;28;20232;-72
2021/09/24 06:21:20;;;;;;;5.53;3.70;;;;;;;13.57;88.16;100734.53;5030639;28;20214;-73
2021/09/24 06:23:47;;;;;;;9.60;3.80;;;;;;;13.60;87.76;100731.63;5030546;28;20210;-73
2021/09/24 06:26:14;;;;;;;8.33;3.97;;;;;;;13.63;87.44;100735.88;5030229;28;20221;-73
2021/09/24 06:28:42;;;;;;;6.03;3.00;;;;;;;13.65;87.30;100744.63;5029973;28;20238;-73
2021/09/24 06:31:08;;;;;;;7.73;2.50;;;;;;;13.66;87.38;100749.88;5030306;28;20214;-73
2021/09/24 06:33:35;;;;;;;5.63;2.60;;;;;;;13.71;87.17;100741.50;5030601;28;20216;-72
2021/09/24 06:36:02;;;;;;;8.60;2.80;;;;;;;13.72;87.34;100749.44;5030530;28;20210;-72
2021/09/24 06:38:29;;;;;;;7.83;2.57;;;;;;;13.75;86.77;100753.72;5030382;28;20237;-73
2021/09/24 06:40:55;;;;;;;8.27;2.53;;;;;;;13.78;87.22;100749.00;5030100;28;20210;-73
2021/09/24 06:43:22;;;;;;;8.00;3.03;;;;;;;13.82;86.64;100744.22;5030250;28;20584;-72
2021/09/24 06:45:50;;;;;;;7.03;3.10;;;;;;;13.87;86.63;100744.75;5030397;28;20216;-73
2021/09/24 06:48:16;;;;;;;6.03;2.57;;;;;;;13.89;86.59;100751.69;5030375;28;20206;-71
2021/09/24 06:50:43;;;;;;;7.50;2.87;;;;;;;13.92;86.71;100752.44;5030002;28;20222;-73
2021/09/24 06:53:09;;;;;;;7.17;2.73;;;;;;;13.96;86.56;100746.75;5030010;28;20504;-72
2021/09/24 06:55:38;;;;;;;6.43;2.97;;;;;;;14.00;86.23;100745.50;5029917;28;20589;-73
2021/09/24 06:58:04;;;;;;;5.10;2.77;;;;;;;14.04;86.08;100746.13;5030067;28;20202;-73
2021/09/24 07:00:31;;;;;;;11.57;3.13;;;;;;;14.08;85.96;100747.63;5030083;28;20209;-73
2021/09/24 07:03:00;;;;;;;10.87;2.93;;;;;;;14.13;85.86;100745.47;5030492;28;20442;-73
2021/09/24 07:05:26;;;;;;;5.47;2.77;;;;;;;14.15;85.75;100741.66;5029925;28;20680;-71
2021/09/24 07:07:53;;;;;;;10.17;3.03;;;;;;;14.20;85.20;100746.66;5030127;28;20202;-73
2021/09/24 07:10:19;;;;;;;6.73;2.97;;;;;;;14.24;85.61;100753.50;5029536;28;20607;-73
2021/09/24 07:12:46;;;;;;;10.97;3.13;;;;;;;14.29;85.13;100743.31;5030080;28;20221;-73
2021/09/24 07:15:13;;;;;;;7.33;2.80;;;;;;;14.32;85.27;100750.25;5030080;28;20240;-72
2021/09/24 07:17:40;;;;;;;7.90;3.43;;;;;;;14.35;85.21;100745.47;5029837;28;20596;-73
2021/09/24 07:20:09;;;;;;;7.83;2.73;;;;;;;14.37;85.08;100748.91;5029371;28;20712;-73
2021/09/24 07:22:36;;;;;;;9.40;3.23;;;;;;;14.41;84.60;100747.72;5031130;28;20206;-73
2021/09/24 07:25:03;;;;;;;6.93;3.67;;;;;;;14.45;85.08;100751.88;5033592;28;20207;-72
2021/09/24 07:27:30;;;;;;;6.13;3.57;;;;;;;14.48;84.44;100751.66;5033566;28;20212;-73
2021/09/24 07:29:56;;;;;;;14.83;4.17;;;;;;;14.51;84.51;100761.28;5032928;28;20675;-73
2021/09/24 07:32:23;;;;;;;8.27;3.30;;;;;;;14.56;84.52;100759.06;5033171;28;20202;-73
2021/09/24 07:34:49;;;;;;;5.17;3.47;;;;;;;14.58;84.33;100758.00;5033489;28;20206;-73
2021/09/24 07:37:18;;;;;;;7.43;3.30;;;;;;;14.63;84.49;100762.13;5033672;28;20210;-73
2021/09/24 07:39:44;;;;;;;9.37;3.70;;;;;;;14.65;84.32;100757.53;5032899;28;20229;-72
2021/09/24 07:42:11;;;;;;;7.27;2.93;;;;;;;14.68;84.43;100757.28;5033205;28;20206;-72
2021/09/24 07:44:37;;;;;;;8.53;3.03;;;;;;;14.70;84.60;100764.19;5033151;28;20206;-72
2021/09/24 07:47:04;;;;;;;11.73;3.60;;;;;;;14.73;84.14;100768.47;5032687;28;20226;-71
2021/09/24 07:49:31;;;;;;;5.47;2.90;;;;;;;14.76;84.41;100771.78;5033083;28;20241;-72
2021/09/24 07:51:57;;;;;;;6.40;2.90;;;;;;;14.81;84.18;100768.75;5033066;28;20588;-73
2021/09/24 07:54:26;;;;;;;8.40;2.60;;;;;;;14.84;84.13;100765.81;5033068;28;20210;-73
2021/09/24 07:56:54;;;;;;;8.47;2.67;;;;;;;14.87;83.76;100771.75;5032947;28;20301;-73
2021/09/24 07:59:22;;;;;;;10.23;3.00;;;;;;;14.90;83.89;100762.63;5032741;28;20249;-73
2021/09/24 08:01:48;;;;;;;7.57;2.90;;;;;;;14.92;83.54;100766.91;5032489;28;20210;-73
2021/09/24 08:04:15;;;;;;;7.90;2.90;;;;;;;14.95;83.50;100760.44;5033109;28;20203;-73
2021/09/24 08:06:41;;;;;;;6.50;3.50;;;;;;;14.98;83.56;100757.53;5032446;28;20301;-73
2021/09/24 08:09:08;;;;;;;7.43;3.27;;;;;;;15.01;83.55;100759.09;5032463;28;20238;-73
2021/09/24 08:11:36;;;;;;;8.70;3.10;;;;;;;15.03;83.20;100766.06;5032637;28;20230;-73
2021/09/24 08:14:03;;;;;;;6.40;3.03;;;;;;;15.05;83.21;100768.63;5032682;28;20206;-73
2021/09/24 08:16:30;;;;;;;7.70;2.80;;;;;;;15.10;83.23;100756.53;5032622;28;20277;-73
2021/09/24 08:18:57;;;;;;;8.30;2.63;;;;;;;15.11;83.12;100758.22;5032230;28;20608;-72
2021/09/24 08:21:24;;;;;;;9.60;2.77;;;;;;;15.13;82.80;100761.66;5032613;28;20212;-74
2021/09/24 08:23:53;;;;;;;8.10;2.40;;;;;;;15.17;82.62;100767.63;5032190;28;20297;-72
2021/09/24 08:26:19;;;;;;;6.47;2.40;;;;;;;15.20;82.89;100765.56;5032465;28;20221;-73
2021/09/24 08:28:48;;;;;;;7.77;2.63;;;;;;;15.25;82.59;100767.84;5031711;28;20407;-73
2021/09/24 08:31:14;;;;;;;8.27;3.00;;;;;;;15.27;82.59;100749.78;5032623;28;20227;-72
2021/09/24 08:33:41;;;;;;;13.03;2.93;;;;;;;15.31;82.46;100761.13;5031944;28;20210;-73
2021/09/24 08:36:08;;;;;;;6.27;3.20;;;;;;;15.34;82.63;100764.44;5032384;28;20211;-73
2021/09/24 08:38:35;;;;;;;10.27;2.67;;;;;;;15.38;82.46;100767.72;5031637;28;20223;-73
2021/09/24 08:41:02;;;;;;;7.47;3.00;;;;;;;15.40;82.29;100768.47;5031931;28;20217;-73
2021/09/24 08:43:29;;;;;;;18.03;3.27;;;;;;;15.43;82.00;100771.72;5032348;28;20222;-72
2021/09/24 08:45:57;;;;;;;5.60;2.63;;;;;;;15.48;82.37;100771.34;5031435;28;20244;-71
2021/09/24 08:48:24;;;;;;;6.00;2.80;;;;;;;15.52;81.76;100767.44;5032123;28;20231;-73
2021/09/24 08:50:51;;;;;;;5.50;2.80;;;;;;;15.56;81.81;100760.88;5031648;28;20710;-73
2021/09/24 08:53:21;;;;;;;8.07;2.67;;;;;;;15.60;81.70;100763.16;5031906;28;20217;-73
2021/09/24 08:55:49;;;;;;;6.17;2.77;;;;;;;15.63;81.67;100756.69;5031866;28;20215;-73
2021/09/24 08:58:16;;;;;;;6.07;2.93;;;;;;;15.66;81.67;100744.84;5031911;28;20208;-73
2021/09/24 09:00:43;;;;;;;9.77;3.43;;;;;;;15.71;81.66;100746.19;5031576;28;20202;-74
2021/09/24 09:03:13;;;;;;;8.80;3.10;;;;;;;15.75;81.19;100744.09;5031639;28;20298;-73
2021/09/24 09:05:42;;;;;;;7.27;3.30;;;;;;;15.78;80.82;100743.81;5030846;28;20260;-74
2021/09/24 09:08:15;;;;;;;6.57;3.20;;;;;;;15.81;80.90;100744.41;5031705;28;20223;-73
2021/09/24 09:10:45;;;;;;;5.87;3.27;;;;;;;15.86;80.63;100742.22;5031318;28;20230;-73
2021/09/24 09:13:14;;;;;;;5.23;2.83;;;;;;;15.92;80.71;100746.22;5031902;28;20209;-74
2021/09/24 09:15:41;;;;;;;8.07;3.30;;;;;;;15.98;80.44;100738.47;5031632;28;20215;-73
2021/09/24 09:18:17;;;;;;;8.13;3.37;;;;;;;16.05;80.18;100748.72;5031467;28;20223;-73
2021/09/24 09:20:47;;;;;;;9.17;3.40;;;;;;;16.12;79.86;100741.88;5031435;28;20206;-73
2021/09/24 09:23:13;;;;;;;7.40;3.53;;;;;;;16.19;79.71;100743.03;5031149;28;20690;-73
2021/09/24 09:25:42;;;;;;;9.73;3.50;;;;;;;16.24;79.20;100746.19;5031436;28;20212;-74
2021/09/24 09:28:11;;;;;;;6.70;3.57;;;;;;;16.31;79.27;100737.44;5030988;28;20218;-73
2021/09/24 09:30:41;;;;;;;7.57;3.47;;;;;;;16.41;79.14;100736.66;5031108;28;20697;-73
2021/09/24 09:33:12;;;;;;;8.10;4.07;;;;;;;16.44;78.47;100731.03;5031148;28;20209;-73
2021/09/24 09:35:41;;;;;;;7.33;4.17;;;;;;;16.49;78.30;100735.00;5031325;28;20223;-74
2021/09/24 09:38:19;;;;;;;9.67;5.43;;;;;;;16.54;78.12;100731.91;5030856;28;20208;-74
2021/09/24 09:40:46;;;;;;;8.47;3.97;;;;;;;16.59;78.19;100730.53;5030850;28;20203;-73
2021/09/24 09:43:20;;;;;;;6.97;3.97;;;;;;;16.67;77.98;100737.97;5031202;28;20208;-73
2021/09/24 09:45:49;;;;;;;6.87;3.63;;;;;;;16.73;77.71;100736.59;5030375;28;20214;-74
2021/09/24 09:48:15;;;;;;;12.30;4.43;;;;;;;16.77;77.34;100738.03;5030849;28;20211;-74
2021/09/24 09:50:42;;;;;;;8.90;4.00;;;;;;;16.84;77.17;100733.81;5030518;28;20236;-73
2021/09/24 09:53:11;;;;;;;5.90;3.53;;;;;;;16.88;76.92;100725.31;5030916;28;20231;-74
2021/09/24 09:55:41;;;;;;;11.10;4.73;;;;;;;16.94;76.43;100729.31;5031126;28;20210;-74
2021/09/24 09:58:11;;;;;;;8.70;4.67;;;;;;;17.00;76.31;100726.09;5030739;28;20583;-74
2021/09/24 10:00:54;;;;;;;6.90;3.90;;;;;;;17.04;75.87;100726.66;5031018;28;20270;-71
2021/09/24 10:03:28;;;;;;;6.50;3.93;;;;;;;17.11;75.77;100719.75;5030886;28;20208;-71
2021/09/24 10:05:55;;;;;;;8.60;4.73;;;;;;;17.20;75.44;100724.28;5029972;28;20216;-73
2021/09/24 10:08:23;;;;;;;9.23;5.10;;;;;;;17.28;75.04;100719.94;5030661;28;20237;-71
2021/09/24 10:10:59;;;;;;;8.70;5.20;;;;;;;17.37;74.91;100715.56;5030575;28;20234;-74
2021/09/24 10:13:26;;;;;;;10.27;4.50;;;;;;;17.43;74.60;100714.13;5031246;28;20206;-73
2021/09/24 10:15:53;;;;;;;10.37;4.90;;;;;;;17.49;74.24;100705.50;5030371;28;20221;-74
2021/09/24 10:18:20;;;;;;;7.90;5.03;;;;;;;17.56;74.02;100707.47;5030344;28;20720;-73
2021/09/24 10:20:46;;;;;;;8.77;5.57;;;;;;;17.58;73.27;100713.59;5030410;28;20207;-74
2021/09/24 10:23:13;;;;;;;12.63;7.30;;;;;;;17.64;72.99;100704.13;5030650;28;20217;-73
2021/09/24 10:25:42;;;;;;;12.13;6.30;;;;;;;17.69;72.78;100701.88;5030297;28;20212;-73
2021/09/24 10:30:46;;;;;;;9.97;6.90;;;;;;;17.83;72.62;100709.53;5072170;22;20245;-73
2021/09/24 10:33:16;;;;;;;12.97;6.97;;;;;;;17.93;72.43;100707.66;5050805;28;20687;-73
2021/09/24 10:35:48;;;;;;;12.30;7.10;;;;;;;18.06;71.96;100712.78;5050638;28;20259;-73
2021/09/24 10:38:17;;;;;;;11.20;6.83;;;;;;;18.11;71.51;100710.47;5050311;28;20259;-73
2021/09/24 10:41:02;;;;;;;9.20;6.23;;;;;;;18.21;71.45;100705.09;5030085;28;20231;-73
2021/09/24 10:43:44;;;;;;;10.00;7.07;;;;;;;18.30;71.23;100704.19;5030416;28;20206;-73
2021/09/24 10:46:33;;;;;;;8.47;6.37;;;;;;;18.35;70.51;100712.72;5024921;28;20311;-73
2021/09/24 10:49:32;;;;;;;13.73;8.97;;;;;;;18.39;70.19;100703.34;5025423;28;20233;-73
2021/09/24 10:52:13;;;;;;;13.73;8.00;;;;;;;18.46;70.12;100706.28;5030253;28;20671;-73
2021/09/24 10:54:54;;;;;;;10.60;8.13;;;;;;;18.54;70.02;100704.56;5030379;28;20209;-72
2021/09/24 10:57:21;;;;;;;9.27;6.80;;;;;;;18.61;69.37;100703.03;5032439;28;20211;-73
2021/09/24 10:59:47;;;;;;;10.67;7.17;;;;;;;18.66;68.60;100695.31;5033284;28;20736;-73
2021/09/24 11:02:39;;;;;;;11.87;8.07;;;;;;;18.73;67.96;100687.50;5034148;28;20231;-73
2021/09/24 11:05:07;;;;;;;11.37;7.93;;;;;;;18.73;66.91;100695.59;5033870;28;20211;-73
2021/09/24 11:07:35;;;;;;;9.40;7.67;;;;;;;18.81;67.00;100690.28;5033532;28;20215;-73
2021/09/24 11:10:04;;;;;;;9.27;8.03;;;;;;;18.89;66.40;100694.94;5033422;28;20231;-73
2021/09/24 11:12:30;;;;;;;9.47;7.80;;;;;;;18.95;66.15;100692.50;5034169;28;20209;-73
2021/09/24 11:15:12;;;;;;;11.23;8.07;;;;;;;19.01;65.87;100691.03;5033720;28;20208;-73
2021/09/24 11:17:43;;;;;;;11.97;9.00;;;;;;;19.03;65.39;100692.59;5033740;28;20614;-73
2021/09/24 11:20:33;;;;;;;12.07;8.37;;;;;;;19.10;65.52;100692.84;5033396;28;20232;-73
2021/09/24 11:23:00;;;;;;;10.27;9.27;;;;;;;19.12;64.53;100682.75;5033831;28;20223;-73
2021/09/24 11:25:29;;;;;;;10.93;8.87;;;;;;;19.14;64.51;100683.47;5033589;28;20210;-73
2021/09/24 11:27:58;;;;;;;11.37;9.10;;;;;;;19.16;64.28;100686.00;5033609;28;20221;-73